PAQT

Nuiqsut Airport

Nuiqsut, Alaska, USA
PAQT 191139Z 1912/2012 08013KT P6SM VCSH OVC010 FM200700 06010KT 2SM -SN BR BKN010 OVC015
Issued Valid From Valid To
Nov-19 @ 11:39 UTC
(2 hours ago)
Nov-19 @ 12:00 UTC
(2 hours ago)
Nov-20 @ 12:00 UTC
(in 22 hours)
Nov-19 @ 12:00 to Nov-20 @ 07:00
PAQT 191139Z 1912/2012 08013KT P6SM VCSH OVC010
Wind Visibility Clouds
80° at 13 knots Greater than 6 miles
  • Overcast at 1,000' AGL
From Nov-20 @ 07:00 to Nov-20 @ 12:00
FM200700 06010KT 2SM -SN BR BKN010 OVC015
Wind Visibility Clouds Conditions
60° at 10 knots 2 miles
  • Broken at 1,000' AGL
  • Overcast at 1,500' AGL
  • Light Snow
  • Mist
PAQT 191139Z 1912/2012 08013KT P6SM VCSH OVC010 FM200700 06010KT 2SM -SN BR BKN010 OVC015
Issued Nov-19 @ 11:39 UTC
(2 hours ago)
Valid From Nov-19 @ 12:00 UTC
(2 hours ago)
Valid To Nov-20 @ 12:00 UTC
(in 22 hours)
Nov-19 @ 12:00 - Nov-20 @ 07:00
Wind Visibility
80° at 13 knots Greater than 6 miles
Clouds
  • Overcast at 1,000' AGL
From Nov-20 @ 07:00 - Nov-20 @ 12:00
Wind Visibility
60° at 10 knots 2 miles
Clouds
  • Broken at 1,000' AGL
  • Overcast at 1,500' AGL
Conditions
  • Light Snow
  • Mist